createdAt,value
2023-02-08T00:03:02.229Z,100.00
2023-02-08T00:07:04.306Z,100.00
2023-02-08T00:11:06.929Z,100.00
2023-02-08T00:15:08.906Z,100.00
2023-02-08T00:19:10.478Z,100.00
2023-02-08T00:23:13.007Z,100.00
2023-02-08T00:27:15.786Z,100.00
2023-02-08T00:31:17.301Z,100.00
2023-02-08T00:35:18.903Z,100.00
2023-02-08T00:39:21.185Z,100.00
2023-02-08T00:43:22.665Z,100.00
2023-02-08T00:47:24.799Z,100.00
2023-02-08T00:51:26.239Z,100.00
2023-02-08T00:55:27.751Z,100.00
2023-02-08T00:59:29.276Z,100.00
2023-02-08T01:03:33.878Z,100.00
2023-02-08T01:07:38.685Z,100.00
2023-02-08T01:11:40.135Z,100.00
2023-02-08T01:15:41.619Z,100.00
2023-02-08T01:19:43.074Z,100.00
2023-02-08T01:23:45.673Z,100.00
2023-02-08T01:27:47.823Z,100.00
2023-02-08T01:31:49.365Z,100.00
2023-02-08T01:35:53.962Z,100.00
2023-02-08T01:39:55.494Z,100.00
2023-02-08T01:43:59.839Z,100.00
2023-02-08T01:48:04.720Z,100.00
2023-02-08T01:52:16.987Z,100.00
2023-02-08T01:56:23.400Z,100.00
2023-02-08T02:00:25.048Z,100.00
2023-02-08T02:04:27.450Z,100.00
2023-02-08T02:08:30.569Z,100.00
2023-02-08T02:12:33.840Z,100.00
2023-02-08T02:16:36.143Z,100.00
2023-02-08T02:20:43.675Z,100.00
2023-02-08T02:25:23.689Z,100.00
2023-02-08T02:29:31.355Z,100.00
2023-02-08T02:33:58.477Z,100.00
2023-02-08T02:38:21.817Z,100.00
2023-02-08T02:43:01.191Z,100.00
2023-02-08T02:47:15.653Z,100.00
2023-02-08T02:51:27.213Z,100.00
2023-02-08T02:55:32.345Z,100.00
2023-02-08T02:59:35.307Z,100.00
2023-02-08T03:03:36.874Z,100.00
2023-02-08T03:07:41.117Z,100.00
2023-02-08T03:11:54.352Z,100.00
2023-02-08T03:15:58.586Z,100.00
2023-02-08T03:20:08.528Z,100.00
2023-02-08T03:24:26.684Z,100.00
2023-02-08T03:28:49.220Z,100.00
2023-02-08T03:32:56.945Z,100.00
2023-02-08T03:37:08.192Z,100.00
2023-02-08T03:41:14.238Z,100.00
2023-02-08T03:45:21.808Z,100.00
2023-02-08T03:49:29.622Z,100.00
2023-02-08T03:53:38.177Z,100.00
2023-02-08T03:57:54.748Z,100.00
2023-02-08T04:02:01.946Z,100.00
2023-02-08T04:06:03.732Z,100.00
2023-02-08T04:10:05.517Z,100.00
2023-02-08T04:14:06.987Z,100.00
2023-02-08T04:18:08.520Z,100.00
2023-02-08T04:22:09.972Z,100.00
2023-02-08T04:26:11.465Z,100.00
2023-02-08T04:30:13.602Z,100.00
2023-02-08T04:34:15.449Z,100.00
2023-02-08T04:38:16.881Z,100.00
2023-02-08T04:42:18.735Z,100.00
2023-02-08T04:46:20.229Z,100.00
2023-02-08T04:50:21.784Z,100.00
2023-02-08T04:54:23.311Z,100.00
2023-02-08T04:58:24.849Z,100.00
2023-02-08T05:02:26.264Z,100.00
2023-02-08T05:06:27.711Z,100.00
2023-02-08T05:10:29.196Z,100.00
2023-02-08T05:14:30.759Z,100.00
2023-02-08T05:18:32.205Z,100.00
2023-02-08T05:22:33.818Z,100.00
2023-02-08T05:26:35.235Z,100.00
2023-02-08T05:30:38.546Z,100.00
2023-02-08T05:34:40.297Z,100.00
2023-02-08T05:38:41.711Z,100.00
2023-02-08T05:42:44.444Z,100.00
2023-02-08T05:46:45.956Z,100.00
2023-02-08T05:50:47.478Z,100.00
2023-02-08T05:54:48.889Z,100.00
2023-02-08T05:58:50.285Z,100.00
2023-02-08T06:02:51.998Z,100.00
2023-02-08T06:06:53.523Z,100.00
2023-02-08T06:10:54.982Z,100.00
2023-02-08T06:14:56.475Z,100.00
2023-02-08T06:18:58.305Z,100.00
2023-02-08T06:22:59.786Z,100.00
2023-02-08T06:27:01.227Z,100.00
2023-02-08T06:31:02.701Z,100.00
2023-02-08T06:35:04.350Z,100.00
2023-02-08T06:39:05.968Z,100.00
2023-02-08T06:43:07.558Z,100.00
2023-02-08T06:47:08.975Z,100.00
2023-02-08T06:51:10.432Z,100.00
2023-02-08T06:55:11.908Z,100.00
2023-02-08T06:59:13.485Z,100.00
2023-02-08T07:03:17.387Z,100.00
2023-02-08T07:07:19.419Z,100.00
2023-02-08T07:11:21.964Z,100.00
2023-02-08T07:15:23.403Z,100.00
2023-02-08T07:19:24.881Z,100.00
2023-02-08T07:23:26.363Z,100.00
2023-02-08T07:27:27.976Z,100.00
2023-02-08T07:31:29.500Z,100.00
2023-02-08T07:35:31.029Z,100.00
2023-02-08T07:39:32.706Z,100.00
2023-02-08T07:43:35.890Z,100.00
2023-02-08T07:47:37.385Z,100.00
2023-02-08T07:51:38.848Z,100.00
2023-02-08T07:55:40.278Z,100.00
2023-02-08T07:59:41.740Z,100.00
2023-02-08T08:03:43.231Z,100.00
2023-02-08T08:07:44.729Z,100.00
2023-02-08T08:11:46.509Z,100.00
2023-02-08T08:15:47.931Z,100.00
2023-02-08T08:19:49.386Z,100.00
2023-02-08T08:23:50.882Z,100.00
2023-02-08T08:27:52.911Z,100.00
2023-02-08T08:31:54.406Z,100.00
2023-02-08T08:35:57.095Z,100.00
2023-02-08T08:39:58.633Z,100.00
2023-02-08T08:44:00.105Z,100.00
2023-02-08T08:48:03.312Z,100.00
2023-02-08T08:52:07.737Z,100.00
2023-02-08T08:56:09.350Z,100.00
2023-02-08T09:00:11.675Z,100.00
2023-02-08T09:04:13.214Z,100.00
2023-02-08T09:08:14.677Z,100.00
2023-02-08T09:12:16.170Z,100.00
2023-02-08T09:16:18.463Z,100.00
2023-02-08T09:20:20.062Z,100.00
2023-02-08T09:24:21.616Z,100.00
2023-02-08T09:28:23.131Z,96.65
2023-02-08T09:32:24.706Z,95.36
2023-02-08T09:36:31.600Z,93.20
2023-02-08T09:40:48.784Z,91.56
2023-02-08T09:45:07.231Z,89.73
2023-02-08T09:49:19.787Z,86.69
2023-02-08T09:53:35.131Z,88.29
2023-02-08T09:57:38.456Z,87.63
2023-02-08T10:01:39.959Z,84.61
2023-02-08T10:05:41.642Z,81.83
2023-02-08T10:09:43.202Z,80.27
2023-02-08T10:13:56.904Z,81.30
2023-02-08T10:18:04.450Z,78.39
2023-02-08T10:22:47.117Z,80.75
2023-02-08T10:26:54.178Z,77.62
2023-02-08T10:31:30.506Z,76.78
2023-02-08T10:35:38.984Z,74.63
2023-02-08T10:39:40.863Z,77.27
2023-02-08T10:44:08.374Z,71.83
2023-02-08T10:48:22.885Z,72.36
2023-02-08T10:52:24.414Z,69.99
2023-02-08T10:56:49.793Z,69.45
2023-02-08T11:00:52.070Z,70.43
2023-02-08T11:05:07.696Z,68.34
2023-02-08T11:09:35.601Z,69.23
2023-02-08T11:13:46.116Z,66.89
2023-02-08T11:17:47.692Z,68.89
2023-02-08T11:21:51.937Z,67.69
2023-02-08T11:25:54.830Z,66.42
2023-02-08T11:30:14.573Z,68.73
2023-02-08T11:34:25.128Z,65.77
2023-02-08T11:38:28.190Z,65.24
2023-02-08T11:42:35.198Z,63.26
2023-02-08T11:46:37.432Z,62.72
2023-02-08T11:50:39.444Z,60.31
2023-02-08T11:54:42.432Z,61.79
2023-02-08T11:59:19.288Z,60.96
2023-02-08T12:03:37.590Z,58.96
2023-02-08T12:07:47.640Z,58.16
2023-02-08T12:11:50.620Z,58.33
2023-02-08T12:16:16.831Z,58.23
2023-02-08T12:20:32.155Z,60.80
2023-02-08T12:24:51.016Z,57.58
2023-02-08T12:29:06.308Z,57.10
2023-02-08T12:33:23.002Z,54.86
2023-02-08T12:37:43.158Z,54.60
2023-02-08T12:42:16.290Z,53.31
2023-02-08T12:46:46.418Z,53.16
2023-02-08T12:50:55.963Z,51.53
2023-02-08T12:55:02.967Z,51.82
2023-02-08T12:59:13.521Z,52.38
2023-02-08T13:03:56.880Z,52.38
2023-02-08T13:08:36.875Z,52.18
2023-02-08T13:12:46.031Z,52.06
2023-02-08T13:16:52.212Z,50.42
2023-02-08T13:20:59.304Z,50.87
2023-02-08T13:25:07.662Z,51.38
2023-02-08T13:29:18.312Z,50.30
2023-02-08T13:33:46.602Z,49.39
2023-02-08T13:38:31.833Z,49.18
2023-02-08T13:42:48.584Z,49.00
2023-02-08T13:46:51.149Z,48.66
2023-02-08T13:50:57.038Z,48.42
2023-02-08T13:55:32.002Z,48.20
2023-02-08T13:59:35.305Z,48.13
2023-02-08T14:03:36.951Z,47.26
2023-02-08T14:07:38.473Z,49.15
2023-02-08T14:12:06.858Z,49.32
2023-02-08T14:16:38.580Z,49.15
2023-02-08T14:20:41.168Z,48.77
2023-02-08T14:25:15.938Z,47.66
2023-02-08T14:29:29.968Z,48.02
2023-02-08T14:33:50.070Z,48.80
2023-02-08T14:38:20.340Z,48.29
2023-02-08T14:43:00.741Z,48.55
2023-02-08T14:47:02.411Z,47.41
2023-02-08T14:51:09.819Z,48.58
2023-02-08T14:55:21.666Z,48.52
2023-02-08T14:59:26.992Z,47.95
2023-02-08T15:03:31.664Z,48.92
2023-02-08T15:07:49.600Z,48.67
2023-02-08T15:12:24.928Z,49.66
2023-02-08T15:16:40.153Z,51.43
2023-02-08T15:20:43.754Z,50.96
2023-02-08T15:24:56.640Z,51.35
2023-02-08T15:29:00.851Z,51.45
2023-02-08T15:33:07.540Z,52.16
2023-02-08T15:37:16.495Z,55.01
2023-02-08T15:41:30.121Z,55.81
2023-02-08T15:45:31.664Z,57.66
2023-02-08T15:49:39.118Z,58.98
2023-02-08T15:53:43.560Z,59.75
2023-02-08T15:57:54.363Z,61.72
2023-02-08T16:01:58.315Z,62.63
2023-02-08T16:06:03.330Z,63.96
2023-02-08T16:10:08.183Z,68.92
2023-02-08T16:14:15.061Z,68.02
2023-02-08T16:18:39.682Z,67.97
2023-02-08T16:22:41.152Z,68.95
2023-02-08T16:26:57.967Z,72.20
2023-02-08T16:31:02.626Z,73.04
2023-02-08T16:35:19.645Z,72.97
2023-02-08T16:39:39.565Z,72.65
2023-02-08T16:43:44.002Z,73.35
2023-02-08T16:47:52.096Z,73.72
2023-02-08T16:52:00.249Z,75.78
2023-02-08T16:56:01.943Z,75.71
2023-02-08T17:00:18.188Z,77.19
2023-02-08T17:04:19.756Z,77.54
2023-02-08T17:08:22.252Z,77.60
2023-02-08T17:12:24.389Z,79.25
2023-02-08T17:16:28.620Z,77.75
2023-02-08T17:20:33.766Z,77.99
2023-02-08T17:24:36.774Z,79.12
2023-02-08T17:28:39.534Z,78.82
2023-02-08T17:32:40.977Z,80.28
2023-02-08T17:36:42.841Z,79.06
2023-02-08T17:40:44.875Z,80.13
2023-02-08T17:44:46.436Z,81.06
2023-02-08T17:48:48.429Z,81.91
2023-02-08T17:52:50.046Z,82.94
2023-02-08T17:56:56.476Z,83.13
2023-02-08T18:00:58.008Z,82.59
2023-02-08T18:04:59.632Z,82.35
2023-02-08T18:09:01.789Z,81.73
2023-02-08T18:13:03.251Z,82.33
2023-02-08T18:17:05.377Z,83.33
2023-02-08T18:21:15.536Z,84.24
2023-02-08T18:25:17.580Z,83.55
2023-02-08T18:29:19.298Z,83.73
2023-02-08T18:33:20.790Z,83.38
2023-02-08T18:37:23.082Z,83.59
2023-02-08T18:41:26.920Z,83.14
2023-02-08T18:45:28.464Z,83.47
2023-02-08T18:49:29.954Z,83.50
2023-02-08T18:53:34.218Z,84.10
2023-02-08T18:57:38.764Z,84.70
2023-02-08T19:01:40.380Z,84.36
2023-02-08T19:05:42.249Z,86.96
2023-02-08T19:09:44.116Z,86.84
2023-02-08T19:13:46.845Z,89.59
2023-02-08T19:17:48.283Z,91.39
2023-02-08T19:21:49.773Z,93.34
2023-02-08T19:25:51.298Z,93.93
2023-02-08T19:29:56.132Z,95.72
2023-02-08T19:33:59.889Z,95.08
2023-02-08T19:38:01.450Z,95.39
2023-02-08T19:42:03.183Z,96.29
2023-02-08T19:46:13.718Z,94.98
2023-02-08T19:50:15.210Z,93.34
2023-02-08T19:54:18.445Z,94.97
2023-02-08T19:58:19.891Z,95.22
2023-02-08T20:02:24.330Z,96.86
2023-02-08T20:06:29.475Z,96.28
2023-02-08T20:10:30.908Z,96.72
2023-02-08T20:14:33.769Z,95.80
2023-02-08T20:18:35.262Z,95.74
2023-02-08T20:22:36.728Z,95.36
2023-02-08T20:26:43.586Z,95.53
2023-02-08T20:30:45.079Z,95.28
2023-02-08T20:34:58.439Z,97.32
2023-02-08T20:39:00.810Z,97.25
2023-02-08T20:43:02.264Z,96.56
2023-02-08T20:47:03.919Z,98.08
2023-02-08T20:51:12.929Z,97.42
2023-02-08T20:55:14.627Z,98.24
2023-02-08T20:59:16.540Z,98.21
2023-02-08T21:03:18.053Z,96.73
2023-02-08T21:07:19.665Z,97.08
2023-02-08T21:11:23.806Z,96.81
2023-02-08T21:15:25.306Z,95.68
2023-02-08T21:19:28.997Z,96.57
2023-02-08T21:23:30.534Z,95.11
2023-02-08T21:27:32.070Z,95.41
2023-02-08T21:31:36.335Z,96.11
2023-02-08T21:35:38.388Z,96.20
2023-02-08T21:39:39.844Z,96.09
2023-02-08T21:43:41.856Z,96.15
2023-02-08T21:47:43.272Z,96.65
2023-02-08T21:52:03.870Z,97.26
2023-02-08T21:56:08.964Z,97.99
2023-02-08T22:00:11.351Z,100.00
2023-02-08T22:04:12.829Z,100.00
2023-02-08T22:08:14.345Z,98.14
2023-02-08T22:12:18.360Z,99.71
2023-02-08T22:16:20.048Z,100.00
2023-02-08T22:20:21.781Z,100.00
2023-02-08T22:24:23.232Z,100.00
2023-02-08T22:28:24.720Z,100.00
2023-02-08T22:32:26.299Z,100.00
2023-02-08T22:36:27.793Z,100.00
2023-02-08T22:40:29.385Z,100.00
2023-02-08T22:44:30.876Z,100.00
2023-02-08T22:48:32.728Z,100.00
2023-02-08T22:52:34.565Z,100.00
2023-02-08T22:56:36.076Z,100.00
2023-02-08T23:00:37.660Z,100.00
2023-02-08T23:04:39.232Z,100.00
2023-02-08T23:08:40.744Z,100.00
2023-02-08T23:12:42.240Z,100.00
2023-02-08T23:16:44.018Z,100.00
2023-02-08T23:20:45.957Z,100.00
2023-02-08T23:24:47.648Z,100.00
2023-02-08T23:28:54.034Z,100.00
2023-02-08T23:32:55.635Z,100.00
2023-02-08T23:36:57.064Z,100.00
2023-02-08T23:41:03.132Z,100.00
2023-02-08T23:45:05.430Z,100.00
2023-02-08T23:49:06.882Z,100.00
2023-02-08T23:53:08.324Z,100.00
2023-02-08T23:57:09.859Z,100.00
